AEA9073 LEMD-GCRR
Flight info
| Callsign | AEA9073 |
|---|---|
| Flight time | 2h 35m |
| Altitude | 39000 |
| Route | VTB N10 HIJ DCT SVL N857 KORNO UN857 TERTO |
| Aircraft | B738/M-SDE2E3FGHIRWXY/LB1 |
Departure
| Time | 2026-05-01 10:12 |
|---|---|
| Airport | Adolfo Suárez Madrid–Barajas Airport (LEMD) |
Arrival
| Time | 2026-05-01 12:48 |
|---|---|
| Airport | César Manrique-Lanzarote Airport (GCRR) |
| Time | Latitude | Longitude | Altitude | Speed | Heading |
|---|---|---|---|---|---|
| 2026-05-01 09:24 | 40.46708 | -3.56794 | 1973 ft | 0 kts | 282° |
| 2026-05-01 09:59 | 40.46706 | -3.56781 | 1976 ft | 4 kts | 282° |
| 2026-05-01 09:59 | 40.46701 | -3.56746 | 1974 ft | 3 kts | 281° |
| 2026-05-01 09:59 | 40.46697 | -3.56726 | 1974 ft | 4 kts | 300° |
| 2026-05-01 10:00 | 40.46683 | -3.56708 | 1978 ft | 4 kts | 342° |
| 2026-05-01 10:00 | 40.46661 | -3.56705 | 1978 ft | 1 kts | 3° |
| 2026-05-01 10:00 | 40.46657 | -3.56705 | 1978 ft | 0 kts | 3° |
| 2026-05-01 10:05 | 40.46695 | -3.56702 | 1972 ft | 9 kts | 3° |
| 2026-05-01 10:05 | 40.46759 | -3.56697 | 1973 ft | 9 kts | 3° |
| 2026-05-01 10:05 | 40.46805 | -3.56640 | 1976 ft | 11 kts | 77° |
| 2026-05-01 10:05 | 40.46840 | -3.56560 | 1973 ft | 11 kts | 15° |
| 2026-05-01 10:06 | 40.46959 | -3.56546 | 1977 ft | 20 kts | 1° |
| 2026-05-01 10:06 | 40.47098 | -3.56591 | 1982 ft | 21 kts | 333° |
| 2026-05-01 10:06 | 40.47214 | -3.56696 | 1982 ft | 20 kts | 322° |
| 2026-05-01 10:06 | 40.47293 | -3.56777 | 1986 ft | 23 kts | 322° |
| 2026-05-01 10:07 | 40.47373 | -3.56860 | 1987 ft | 25 kts | 322° |
| 2026-05-01 10:07 | 40.47543 | -3.57030 | 1992 ft | 31 kts | 322° |
| 2026-05-01 10:07 | 40.47707 | -3.57196 | 1998 ft | 29 kts | 322° |
| 2026-05-01 10:07 | 40.47862 | -3.57353 | 2004 ft | 27 kts | 322° |
| 2026-05-01 10:08 | 40.48142 | -3.57639 | 1996 ft | 24 kts | 322° |
| 2026-05-01 10:08 | 40.48270 | -3.57769 | 1993 ft | 23 kts | 322° |
| 2026-05-01 10:08 | 40.48403 | -3.57895 | 1990 ft | 23 kts | 327° |
| 2026-05-01 10:09 | 40.48538 | -3.58004 | 2000 ft | 22 kts | 329° |
| 2026-05-01 10:09 | 40.48685 | -3.58050 | 2002 ft | 22 kts | 359° |
| 2026-05-01 10:09 | 40.48832 | -3.58037 | 2000 ft | 21 kts | 32° |
| 2026-05-01 10:09 | 40.48855 | -3.57919 | 1997 ft | 22 kts | 94° |
| 2026-05-01 10:10 | 40.48861 | -3.57762 | 1992 ft | 22 kts | 66° |
| 2026-05-01 10:10 | 40.49003 | -3.57723 | 1991 ft | 22 kts | 355° |
| 2026-05-01 10:10 | 40.49179 | -3.57615 | 1989 ft | 14 kts | 69° |
| 2026-05-01 10:11 | 40.49219 | -3.57495 | 1985 ft | 15 kts | 58° |
| 2026-05-01 10:11 | 40.49313 | -3.57453 | 1982 ft | 15 kts | 2° |
| 2026-05-01 10:11 | 40.49465 | -3.57448 | 1982 ft | 35 kts | 1° |
| 2026-05-01 10:11 | 40.49802 | -3.57454 | 1987 ft | 72 kts | 0° |
| 2026-05-01 10:12 | 40.50239 | -3.57466 | 1988 ft | 122 kts | 358° |
| 2026-05-01 10:12 | 40.51296 | -3.57452 | 2029 ft | 177 kts | 4° |
| 2026-05-01 10:12 | 40.53797 | -3.57348 | 3522 ft | 183 kts | 1° |
| 2026-05-01 10:13 | 40.55080 | -3.57365 | 4343 ft | 187 kts | 359° |
| 2026-05-01 10:13 | 40.56402 | -3.57412 | 5021 ft | 191 kts | 359° |
| 2026-05-01 10:13 | 40.57751 | -3.57450 | 5542 ft | 205 kts | 359° |
| 2026-05-01 10:14 | 40.60849 | -3.57051 | 6057 ft | 241 kts | 26° |
| 2026-05-01 10:14 | 40.62383 | -3.56088 | 6565 ft | 249 kts | 26° |
| 2026-05-01 10:14 | 40.64045 | -3.55300 | 6922 ft | 267 kts | 5° |
| 2026-05-01 10:14 | 40.65299 | -3.55424 | 7067 ft | 279 kts | 342° |
| 2026-05-01 10:15 | 40.66821 | -3.55978 | 7519 ft | 286 kts | 353° |
| 2026-05-01 10:15 | 40.68821 | -3.55945 | 8195 ft | 290 kts | 2° |
| 2026-05-01 10:15 | 40.70846 | -3.55833 | 8890 ft | 293 kts | 0° |
| 2026-05-01 10:15 | 40.72901 | -3.55786 | 9567 ft | 297 kts | 359° |
| 2026-05-01 10:16 | 40.74982 | -3.55817 | 10230 ft | 301 kts | 351° |
| 2026-05-01 10:16 | 40.76978 | -3.56767 | 10443 ft | 316 kts | 322° |
| 2026-05-01 10:16 | 40.79031 | -3.61910 | 10755 ft | 344 kts | 267° |
| 2026-05-01 10:17 | 40.78827 | -3.63852 | 10942 ft | 349 kts | 255° |
| 2026-05-01 10:17 | 40.77595 | -3.70174 | 12076 ft | 359 kts | 255° |
| 2026-05-01 10:17 | 40.77007 | -3.73379 | 12723 ft | 362 kts | 254° |
| 2026-05-01 10:18 | 40.74211 | -3.78753 | 13967 ft | 368 kts | 215° |
| 2026-05-01 10:18 | 40.71900 | -3.80214 | 14548 ft | 373 kts | 196° |
| 2026-05-01 10:18 | 40.69592 | -3.80625 | 15091 ft | 378 kts | 180° |
| 2026-05-01 10:19 | 40.67013 | -3.80029 | 15679 ft | 385 kts | 165° |
| 2026-05-01 10:19 | 40.64442 | -3.78971 | 16295 ft | 388 kts | 164° |
| 2026-05-01 10:19 | 40.61846 | -3.77924 | 16855 ft | 392 kts | 165° |
| 2026-05-01 10:20 | 40.58294 | -3.75464 | 17641 ft | 403 kts | 139° |
| 2026-05-01 10:20 | 40.56445 | -3.72657 | 18254 ft | 407 kts | 128° |
| 2026-05-01 10:20 | 40.54770 | -3.69641 | 18772 ft | 411 kts | 127° |
| 2026-05-01 10:20 | 40.53089 | -3.66580 | 19241 ft | 415 kts | 128° |
| 2026-05-01 10:21 | 40.51371 | -3.63520 | 19722 ft | 418 kts | 128° |
| 2026-05-01 10:21 | 40.47632 | -3.57635 | 20657 ft | 421 kts | 145° |
| 2026-05-01 10:21 | 40.45088 | -3.55767 | 21129 ft | 419 kts | 162° |
| 2026-05-01 10:22 | 40.40383 | -3.54682 | 21923 ft | 419 kts | 176° |
| 2026-05-01 10:22 | 40.34535 | -3.53974 | 22764 ft | 425 kts | 176° |
| 2026-05-01 10:23 | 40.31579 | -3.53613 | 23188 ft | 429 kts | 176° |
| 2026-05-01 10:23 | 40.25608 | -3.52842 | 24010 ft | 434 kts | 176° |
| 2026-05-01 10:23 | 40.22637 | -3.52443 | 24357 ft | 436 kts | 176° |
| 2026-05-01 10:24 | 40.16559 | -3.51616 | 25037 ft | 441 kts | 176° |
| 2026-05-01 10:24 | 40.11422 | -3.50915 | 25529 ft | 445 kts | 176° |
| 2026-05-01 10:25 | 40.05791 | -3.50149 | 25989 ft | 449 kts | 176° |
| 2026-05-01 10:25 | 39.99563 | -3.49305 | 26504 ft | 452 kts | 177° |
| 2026-05-01 10:26 | 39.96432 | -3.48881 | 26747 ft | 453 kts | 177° |
| 2026-05-01 10:26 | 39.93284 | -3.48455 | 26983 ft | 455 kts | 177° |
| 2026-05-01 10:26 | 39.87085 | -3.47618 | 27440 ft | 458 kts | 177° |
| 2026-05-01 10:27 | 39.81743 | -3.46898 | 27828 ft | 460 kts | 177° |
| 2026-05-01 10:27 | 39.75350 | -3.46352 | 28235 ft | 458 kts | 191° |
| 2026-05-01 10:28 | 39.72322 | -3.47503 | 28435 ft | 453 kts | 208° |
| 2026-05-01 10:28 | 39.67615 | -3.52670 | 29002 ft | 445 kts | 236° |
| 2026-05-01 10:28 | 39.66099 | -3.56147 | 29313 ft | 442 kts | 249° |
| 2026-05-01 10:29 | 39.64368 | -3.63756 | 29862 ft | 441 kts | 243° |
| 2026-05-01 10:29 | 39.62619 | -3.67009 | 30125 ft | 442 kts | 227° |
| 2026-05-01 10:30 | 39.59373 | -3.71046 | 30586 ft | 440 kts | 225° |
| 2026-05-01 10:30 | 39.55029 | -3.76648 | 30977 ft | 441 kts | 226° |
| 2026-05-01 10:31 | 39.50723 | -3.82284 | 31497 ft | 439 kts | 226° |
| 2026-05-01 10:31 | 39.46430 | -3.87892 | 31936 ft | 439 kts | 226° |
| 2026-05-01 10:32 | 39.42893 | -3.92500 | 32330 ft | 438 kts | 226° |
| 2026-05-01 10:32 | 39.40746 | -3.95292 | 32581 ft | 437 kts | 226° |
| 2026-05-01 10:32 | 39.36456 | -4.00863 | 33060 ft | 437 kts | 226° |
| 2026-05-01 10:33 | 39.32180 | -4.06406 | 33551 ft | 436 kts | 226° |
| 2026-05-01 10:33 | 39.27900 | -4.11944 | 34009 ft | 435 kts | 226° |
| 2026-05-01 10:34 | 39.25761 | -4.14709 | 34257 ft | 434 kts | 226° |
| 2026-05-01 10:34 | 39.23633 | -4.17455 | 34468 ft | 433 kts | 226° |
| 2026-05-01 10:34 | 39.21499 | -4.20208 | 34670 ft | 433 kts | 225° |
| 2026-05-01 10:35 | 39.18326 | -4.24296 | 34984 ft | 432 kts | 225° |
| 2026-05-01 10:35 | 39.16231 | -4.26993 | 35179 ft | 431 kts | 226° |
| 2026-05-01 10:35 | 39.14081 | -4.29757 | 35361 ft | 431 kts | 225° |
| 2026-05-01 10:35 | 39.11959 | -4.32483 | 35539 ft | 431 kts | 225° |
| 2026-05-01 10:36 | 39.07726 | -4.37913 | 35960 ft | 429 kts | 225° |
| 2026-05-01 10:36 | 39.05645 | -4.40580 | 36139 ft | 428 kts | 225° |
| 2026-05-01 10:36 | 39.04216 | -4.42409 | 36250 ft | 428 kts | 225° |
| 2026-05-01 10:37 | 39.02158 | -4.45043 | 36412 ft | 428 kts | 225° |
| 2026-05-01 10:37 | 38.97938 | -4.50437 | 36759 ft | 427 kts | 225° |
| 2026-05-01 10:37 | 38.95832 | -4.53124 | 36955 ft | 426 kts | 225° |
| 2026-05-01 10:38 | 38.93727 | -4.55807 | 37117 ft | 426 kts | 225° |
| 2026-05-01 10:38 | 38.91623 | -4.58484 | 37142 ft | 426 kts | 225° |
| 2026-05-01 10:38 | 38.87402 | -4.63846 | 37161 ft | 427 kts | 225° |
| 2026-05-01 10:39 | 38.83177 | -4.69204 | 37158 ft | 427 kts | 225° |
| 2026-05-01 10:39 | 38.79987 | -4.73246 | 37161 ft | 427 kts | 225° |
| 2026-05-01 10:40 | 38.75778 | -4.78571 | 37147 ft | 428 kts | 225° |
| 2026-05-01 10:40 | 38.71544 | -4.83918 | 37155 ft | 428 kts | 225° |
| 2026-05-01 10:41 | 38.67306 | -4.89261 | 37147 ft | 427 kts | 225° |
| 2026-05-01 10:42 | 38.61700 | -4.96314 | 37145 ft | 427 kts | 225° |
| 2026-05-01 10:42 | 38.57465 | -5.01634 | 37141 ft | 426 kts | 225° |
| 2026-05-01 10:43 | 38.53222 | -5.06953 | 37156 ft | 430 kts | 225° |
| 2026-05-01 10:43 | 38.48431 | -5.11574 | 37145 ft | 435 kts | 208° |
| 2026-05-01 10:44 | 38.42966 | -5.14959 | 37146 ft | 438 kts | 206° |
| 2026-05-01 10:44 | 38.37490 | -5.18285 | 37129 ft | 434 kts | 207° |
| 2026-05-01 10:45 | 38.33435 | -5.20772 | 37146 ft | 430 kts | 207° |
| 2026-05-01 10:45 | 38.28092 | -5.24072 | 37147 ft | 429 kts | 207° |
| 2026-05-01 10:46 | 38.22732 | -5.27387 | 37142 ft | 428 kts | 207° |
| 2026-05-01 10:46 | 38.17382 | -5.30693 | 37146 ft | 427 kts | 207° |
| 2026-05-01 10:47 | 38.13060 | -5.33358 | 37146 ft | 428 kts | 207° |
| 2026-05-01 10:47 | 38.07704 | -5.36656 | 37146 ft | 428 kts | 206° |
| 2026-05-01 10:48 | 38.02336 | -5.39956 | 37147 ft | 429 kts | 206° |
| 2026-05-01 10:48 | 37.96957 | -5.43257 | 37146 ft | 430 kts | 206° |
| 2026-05-01 10:49 | 37.91565 | -5.46560 | 37144 ft | 431 kts | 206° |
| 2026-05-01 10:49 | 37.89613 | -5.47755 | 37142 ft | 431 kts | 206° |
| 2026-05-01 10:50 | 37.85620 | -5.50196 | 37123 ft | 416 kts | 206° |
| 2026-05-01 10:50 | 37.80535 | -5.53299 | 37129 ft | 396 kts | 206° |
| 2026-05-01 10:51 | 37.75680 | -5.56259 | 37122 ft | 379 kts | 206° |
| 2026-05-01 10:51 | 37.71039 | -5.59085 | 37130 ft | 363 kts | 206° |
| 2026-05-01 10:52 | 37.67387 | -5.61306 | 37095 ft | 352 kts | 206° |
| 2026-05-01 10:52 | 37.65194 | -5.62639 | 36980 ft | 349 kts | 206° |
| 2026-05-01 10:52 | 37.63019 | -5.63960 | 36736 ft | 346 kts | 206° |
| 2026-05-01 10:52 | 37.60842 | -5.65282 | 36401 ft | 348 kts | 206° |
| 2026-05-01 10:53 | 37.58655 | -5.66609 | 36050 ft | 351 kts | 206° |
| 2026-05-01 10:53 | 37.56451 | -5.67944 | 35742 ft | 353 kts | 206° |
| 2026-05-01 10:53 | 37.54260 | -5.69272 | 35836 ft | 342 kts | 206° |
| 2026-05-01 10:53 | 37.52152 | -5.70570 | 35989 ft | 334 kts | 206° |
| 2026-05-01 10:54 | 37.50067 | -5.71878 | 35797 ft | 336 kts | 207° |
| 2026-05-01 10:54 | 37.47960 | -5.73219 | 35612 ft | 344 kts | 206° |
| 2026-05-01 10:54 | 37.45833 | -5.74559 | 35927 ft | 337 kts | 207° |
| 2026-05-01 10:54 | 37.44861 | -5.75161 | 36185 ft | 332 kts | 205° |
| 2026-05-01 10:55 | 37.42782 | -5.76410 | 36330 ft | 335 kts | 205° |
| 2026-05-01 10:55 | 37.41379 | -5.77304 | 36052 ft | 347 kts | 210° |
| 2026-05-01 10:55 | 37.39339 | -5.79090 | 35535 ft | 369 kts | 218° |
| 2026-05-01 10:56 | 37.35487 | -5.83486 | 35883 ft | 371 kts | 221° |
| 2026-05-01 10:56 | 37.31623 | -5.87914 | 35975 ft | 381 kts | 220° |
| 2026-05-01 10:57 | 37.28295 | -5.91566 | 36056 ft | 388 kts | 219° |
| 2026-05-01 10:57 | 37.26240 | -5.93776 | 36168 ft | 391 kts | 219° |
| 2026-05-01 10:57 | 37.24170 | -5.95986 | 36427 ft | 389 kts | 219° |
| 2026-05-01 10:57 | 37.22110 | -5.98176 | 36694 ft | 387 kts | 219° |
| 2026-05-01 10:58 | 37.20052 | -6.00356 | 36854 ft | 389 kts | 219° |
| 2026-05-01 10:58 | 37.15875 | -6.04773 | 36929 ft | 397 kts | 219° |
| 2026-05-01 10:59 | 37.11637 | -6.09249 | 37132 ft | 399 kts | 219° |
| 2026-05-01 10:59 | 37.07352 | -6.13768 | 37155 ft | 406 kts | 219° |
| 2026-05-01 11:00 | 37.04171 | -6.17118 | 37155 ft | 411 kts | 219° |
| 2026-05-01 11:00 | 36.99761 | -6.21757 | 37154 ft | 418 kts | 219° |
| 2026-05-01 11:01 | 36.95273 | -6.26457 | 37156 ft | 424 kts | 219° |
| 2026-05-01 11:01 | 36.90727 | -6.31232 | 37163 ft | 430 kts | 219° |
| 2026-05-01 11:02 | 36.86932 | -6.35211 | 37179 ft | 434 kts | 219° |
| 2026-05-01 11:02 | 36.82282 | -6.40074 | 37170 ft | 438 kts | 219° |
| 2026-05-01 11:03 | 36.77599 | -6.44963 | 37177 ft | 439 kts | 219° |
| 2026-05-01 11:03 | 36.72943 | -6.49815 | 37174 ft | 439 kts | 219° |
| 2026-05-01 11:04 | 36.68226 | -6.54723 | 37176 ft | 438 kts | 219° |
| 2026-05-01 11:04 | 36.63585 | -6.59544 | 37169 ft | 437 kts | 219° |
| 2026-05-01 11:05 | 36.60161 | -6.63096 | 37169 ft | 435 kts | 219° |
| 2026-05-01 11:05 | 36.55516 | -6.67909 | 37168 ft | 434 kts | 219° |
| 2026-05-01 11:06 | 36.50883 | -6.72700 | 37172 ft | 433 kts | 219° |
| 2026-05-01 11:06 | 36.46257 | -6.77472 | 37168 ft | 432 kts | 219° |
| 2026-05-01 11:07 | 36.40145 | -6.83764 | 37174 ft | 431 kts | 219° |
| 2026-05-01 11:07 | 36.35535 | -6.88503 | 37176 ft | 430 kts | 220° |
| 2026-05-01 11:08 | 36.30931 | -6.93229 | 37179 ft | 429 kts | 220° |
| 2026-05-01 11:09 | 36.24037 | -7.00293 | 37181 ft | 428 kts | 220° |
| 2026-05-01 11:09 | 36.19442 | -7.04992 | 37176 ft | 428 kts | 220° |
| 2026-05-01 11:10 | 36.13704 | -7.10849 | 37177 ft | 428 kts | 220° |
| 2026-05-01 11:10 | 36.09113 | -7.15526 | 37185 ft | 428 kts | 220° |
| 2026-05-01 11:11 | 36.04523 | -7.20197 | 37181 ft | 427 kts | 220° |
| 2026-05-01 11:11 | 36.00569 | -7.24213 | 37180 ft | 427 kts | 220° |
| 2026-05-01 11:12 | 35.96178 | -7.28669 | 37187 ft | 427 kts | 220° |
| 2026-05-01 11:12 | 35.91585 | -7.33321 | 37186 ft | 427 kts | 220° |
| 2026-05-01 11:13 | 35.86987 | -7.37974 | 37186 ft | 427 kts | 220° |
| 2026-05-01 11:13 | 35.82387 | -7.42616 | 37187 ft | 427 kts | 220° |
| 2026-05-01 11:14 | 35.77772 | -7.47229 | 37190 ft | 427 kts | 220° |
| 2026-05-01 11:14 | 35.74379 | -7.50607 | 37186 ft | 427 kts | 220° |
| 2026-05-01 11:15 | 35.69762 | -7.55204 | 37187 ft | 427 kts | 220° |
| 2026-05-01 11:15 | 35.65143 | -7.59800 | 37190 ft | 427 kts | 220° |
| 2026-05-01 11:16 | 35.60523 | -7.64390 | 37189 ft | 427 kts | 220° |
| 2026-05-01 11:16 | 35.56694 | -7.68189 | 37186 ft | 427 kts | 220° |
| 2026-05-01 11:17 | 35.52103 | -7.72739 | 37185 ft | 427 kts | 220° |
| 2026-05-01 11:17 | 35.47485 | -7.77309 | 37187 ft | 426 kts | 220° |
| 2026-05-01 11:18 | 35.42901 | -7.81839 | 37189 ft | 426 kts | 220° |
| 2026-05-01 11:18 | 35.38291 | -7.86410 | 37189 ft | 426 kts | 221° |
| 2026-05-01 11:19 | 35.33708 | -7.90996 | 37192 ft | 426 kts | 221° |
| 2026-05-01 11:19 | 35.30269 | -7.94435 | 37186 ft | 426 kts | 221° |
| 2026-05-01 11:20 | 35.25682 | -7.99013 | 37192 ft | 425 kts | 221° |
| 2026-05-01 11:20 | 35.21093 | -8.03584 | 37188 ft | 425 kts | 221° |
| 2026-05-01 11:21 | 35.16501 | -8.08150 | 37193 ft | 425 kts | 221° |
| 2026-05-01 11:21 | 35.12788 | -8.11836 | 37190 ft | 425 kts | 221° |
| 2026-05-01 11:22 | 35.08195 | -8.16390 | 37194 ft | 425 kts | 221° |
| 2026-05-01 11:22 | 35.03596 | -8.20943 | 37190 ft | 425 kts | 221° |
| 2026-05-01 11:23 | 34.99000 | -8.25487 | 37194 ft | 425 kts | 221° |
| 2026-05-01 11:23 | 34.94401 | -8.30027 | 37188 ft | 425 kts | 221° |
| 2026-05-01 11:24 | 34.89829 | -8.34533 | 37193 ft | 426 kts | 221° |
| 2026-05-01 11:25 | 34.84073 | -8.40197 | 37193 ft | 425 kts | 221° |
| 2026-05-01 11:25 | 34.77166 | -8.46980 | 37186 ft | 425 kts | 221° |
| 2026-05-01 11:26 | 34.70256 | -8.53751 | 37178 ft | 425 kts | 221° |
| 2026-05-01 11:27 | 34.66456 | -8.57467 | 37184 ft | 425 kts | 221° |
| 2026-05-01 11:27 | 34.61851 | -8.61967 | 37179 ft | 425 kts | 221° |
| 2026-05-01 11:28 | 34.57239 | -8.66465 | 37221 ft | 426 kts | 221° |
| 2026-05-01 11:28 | 34.54928 | -8.68718 | 37378 ft | 426 kts | 221° |
| 2026-05-01 11:28 | 34.52616 | -8.70969 | 37428 ft | 426 kts | 221° |
| 2026-05-01 11:29 | 34.45733 | -8.77663 | 37479 ft | 423 kts | 221° |
| 2026-05-01 11:30 | 34.40000 | -8.83201 | 37484 ft | 421 kts | 221° |
| 2026-05-01 11:30 | 34.35410 | -8.87606 | 37480 ft | 420 kts | 221° |
| 2026-05-01 11:31 | 34.30831 | -8.91997 | 37485 ft | 420 kts | 221° |
| 2026-05-01 11:31 | 34.26259 | -8.96379 | 37477 ft | 419 kts | 221° |
| 2026-05-01 11:32 | 34.22562 | -8.99919 | 37484 ft | 419 kts | 221° |
| 2026-05-01 11:32 | 34.17990 | -9.04292 | 37480 ft | 420 kts | 221° |
| 2026-05-01 11:33 | 34.13406 | -9.08670 | 37487 ft | 420 kts | 221° |
| 2026-05-01 11:33 | 34.08818 | -9.13045 | 37476 ft | 421 kts | 221° |
| 2026-05-01 11:34 | 34.04220 | -9.17423 | 37486 ft | 421 kts | 221° |
| 2026-05-01 11:34 | 33.99615 | -9.21802 | 37477 ft | 422 kts | 221° |
| 2026-05-01 11:35 | 33.96163 | -9.25081 | 37483 ft | 422 kts | 221° |
| 2026-05-01 11:35 | 33.91551 | -9.29455 | 37476 ft | 422 kts | 221° |
| 2026-05-01 11:36 | 33.86938 | -9.33824 | 37485 ft | 422 kts | 221° |
| 2026-05-01 11:36 | 33.82322 | -9.38191 | 37477 ft | 422 kts | 221° |
| 2026-05-01 11:37 | 33.78518 | -9.41783 | 37481 ft | 422 kts | 221° |
| 2026-05-01 11:37 | 33.73903 | -9.46137 | 37477 ft | 422 kts | 221° |
| 2026-05-01 11:38 | 33.69287 | -9.50486 | 37469 ft | 421 kts | 221° |
| 2026-05-01 11:38 | 33.64676 | -9.54824 | 37474 ft | 421 kts | 221° |
| 2026-05-01 11:39 | 33.60060 | -9.59160 | 37477 ft | 421 kts | 221° |
| 2026-05-01 11:39 | 33.55482 | -9.63456 | 37473 ft | 421 kts | 222° |
| 2026-05-01 11:40 | 33.52021 | -9.66698 | 37481 ft | 421 kts | 222° |
| 2026-05-01 11:40 | 33.47409 | -9.71015 | 37456 ft | 421 kts | 222° |
| 2026-05-01 11:41 | 33.42799 | -9.75323 | 37475 ft | 420 kts | 222° |
| 2026-05-01 11:41 | 33.38191 | -9.79624 | 37467 ft | 420 kts | 222° |
| 2026-05-01 11:42 | 33.34386 | -9.83171 | 37474 ft | 420 kts | 222° |
| 2026-05-01 11:42 | 33.29780 | -9.87459 | 37468 ft | 420 kts | 222° |
| 2026-05-01 11:43 | 33.25193 | -9.91721 | 37424 ft | 416 kts | 223° |
| 2026-05-01 11:43 | 33.20641 | -9.95948 | 37465 ft | 414 kts | 223° |
| 2026-05-01 11:44 | 33.13820 | -10.02272 | 37477 ft | 413 kts | 223° |
| 2026-05-01 11:44 | 33.10498 | -10.05347 | 37477 ft | 413 kts | 223° |
| 2026-05-01 11:45 | 33.06730 | -10.08833 | 37478 ft | 413 kts | 223° |
| 2026-05-01 11:45 | 33.02192 | -10.13024 | 37474 ft | 413 kts | 223° |
| 2026-05-01 11:46 | 32.97652 | -10.17204 | 37476 ft | 412 kts | 223° |
| 2026-05-01 11:46 | 32.93978 | -10.20580 | 37471 ft | 412 kts | 223° |
| 2026-05-01 11:47 | 32.89435 | -10.24751 | 37474 ft | 412 kts | 223° |
| 2026-05-01 11:47 | 32.84890 | -10.28919 | 37474 ft | 413 kts | 223° |
| 2026-05-01 11:48 | 32.80340 | -10.33088 | 37472 ft | 413 kts | 223° |
| 2026-05-01 11:48 | 32.75817 | -10.37227 | 37477 ft | 413 kts | 223° |
| 2026-05-01 11:49 | 32.71259 | -10.41391 | 37476 ft | 414 kts | 223° |
| 2026-05-01 11:49 | 32.67918 | -10.44440 | 37475 ft | 414 kts | 223° |
| 2026-05-01 11:50 | 32.63351 | -10.48604 | 37473 ft | 414 kts | 223° |
| 2026-05-01 11:50 | 32.58777 | -10.52768 | 37473 ft | 415 kts | 223° |
| 2026-05-01 11:51 | 32.54199 | -10.56931 | 37473 ft | 415 kts | 223° |
| 2026-05-01 11:51 | 32.50500 | -10.60290 | 37474 ft | 415 kts | 223° |
| 2026-05-01 11:52 | 32.45913 | -10.64450 | 37471 ft | 415 kts | 223° |
| 2026-05-01 11:52 | 32.41323 | -10.68609 | 37476 ft | 416 kts | 223° |
| 2026-05-01 11:53 | 32.36728 | -10.72766 | 37469 ft | 416 kts | 223° |
| 2026-05-01 11:53 | 32.32129 | -10.76920 | 37472 ft | 416 kts | 223° |
| 2026-05-01 11:54 | 32.27525 | -10.81075 | 37475 ft | 416 kts | 222° |
| 2026-05-01 11:54 | 32.24093 | -10.84168 | 37476 ft | 417 kts | 222° |
| 2026-05-01 11:55 | 32.19484 | -10.88317 | 37476 ft | 417 kts | 222° |
| 2026-05-01 11:55 | 32.14872 | -10.92464 | 37469 ft | 417 kts | 222° |
| 2026-05-01 11:56 | 32.10253 | -10.96611 | 37472 ft | 417 kts | 222° |
| 2026-05-01 11:56 | 32.06482 | -10.99993 | 37467 ft | 417 kts | 222° |
| 2026-05-01 11:57 | 32.01857 | -11.04137 | 37470 ft | 418 kts | 222° |
| 2026-05-01 11:57 | 31.97233 | -11.08274 | 37476 ft | 418 kts | 222° |
| 2026-05-01 11:58 | 31.92601 | -11.12413 | 37477 ft | 418 kts | 222° |
| 2026-05-01 11:59 | 31.85651 | -11.18613 | 37475 ft | 418 kts | 222° |
| 2026-05-01 11:59 | 31.81011 | -11.22747 | 37475 ft | 418 kts | 222° |
| 2026-05-01 12:00 | 31.75225 | -11.27893 | 37474 ft | 419 kts | 222° |
| 2026-05-01 12:01 | 31.68263 | -11.34097 | 37472 ft | 419 kts | 222° |
| 2026-05-01 12:01 | 31.63619 | -11.38235 | 37477 ft | 419 kts | 222° |
| 2026-05-01 12:02 | 31.59868 | -11.41572 | 37474 ft | 419 kts | 222° |
| 2026-05-01 12:02 | 31.55214 | -11.45708 | 37474 ft | 420 kts | 222° |
| 2026-05-01 12:02 | 31.52886 | -11.47776 | 37292 ft | 422 kts | 222° |
| 2026-05-01 12:03 | 31.50549 | -11.49850 | 37198 ft | 421 kts | 222° |
| 2026-05-01 12:03 | 31.45897 | -11.53974 | 37188 ft | 425 kts | 222° |
| 2026-05-01 12:04 | 31.41151 | -11.58178 | 37175 ft | 429 kts | 221° |
| 2026-05-01 12:04 | 31.36375 | -11.62400 | 37176 ft | 431 kts | 221° |
| 2026-05-01 12:05 | 31.32885 | -11.65480 | 37171 ft | 432 kts | 221° |
| 2026-05-01 12:05 | 31.25675 | -11.71837 | 37174 ft | 433 kts | 221° |
| 2026-05-01 12:06 | 31.20869 | -11.76068 | 37173 ft | 432 kts | 221° |
| 2026-05-01 12:06 | 31.16986 | -11.79481 | 37175 ft | 432 kts | 221° |
| 2026-05-01 12:07 | 31.12189 | -11.83695 | 37175 ft | 432 kts | 221° |
| 2026-05-01 12:07 | 31.07390 | -11.87904 | 37176 ft | 431 kts | 221° |
| 2026-05-01 12:08 | 31.02599 | -11.92102 | 37177 ft | 431 kts | 221° |
| 2026-05-01 12:08 | 30.97808 | -11.96293 | 37174 ft | 430 kts | 221° |
| 2026-05-01 12:09 | 30.93024 | -12.00474 | 37177 ft | 430 kts | 221° |
| 2026-05-01 12:09 | 30.89545 | -12.03511 | 37176 ft | 430 kts | 221° |
| 2026-05-01 12:10 | 30.82392 | -12.09745 | 37176 ft | 430 kts | 221° |
| 2026-05-01 12:11 | 30.75201 | -12.16002 | 37172 ft | 430 kts | 221° |
| 2026-05-01 12:11 | 30.71323 | -12.19370 | 37177 ft | 431 kts | 221° |
| 2026-05-01 12:12 | 30.66524 | -12.23535 | 37175 ft | 431 kts | 221° |
| 2026-05-01 12:12 | 30.61718 | -12.27701 | 37177 ft | 431 kts | 221° |
| 2026-05-01 12:13 | 30.56911 | -12.31862 | 37179 ft | 431 kts | 221° |
| 2026-05-01 12:13 | 30.52095 | -12.36026 | 37179 ft | 431 kts | 221° |
| 2026-05-01 12:14 | 30.47307 | -12.40150 | 37169 ft | 426 kts | 221° |
| 2026-05-01 12:14 | 30.43793 | -12.43166 | 37175 ft | 424 kts | 220° |
| 2026-05-01 12:15 | 30.41416 | -12.45207 | 36805 ft | 428 kts | 220° |
| 2026-05-01 12:15 | 30.39027 | -12.47259 | 36307 ft | 426 kts | 220° |
| 2026-05-01 12:15 | 30.36647 | -12.49300 | 35661 ft | 427 kts | 220° |
| 2026-05-01 12:15 | 30.34266 | -12.51341 | 35013 ft | 428 kts | 220° |
| 2026-05-01 12:16 | 30.31869 | -12.53395 | 34326 ft | 429 kts | 220° |
| 2026-05-01 12:16 | 30.29466 | -12.55453 | 33580 ft | 430 kts | 220° |
| 2026-05-01 12:16 | 30.27066 | -12.57505 | 33110 ft | 428 kts | 219° |
| 2026-05-01 12:16 | 30.25513 | -12.58834 | 32778 ft | 430 kts | 219° |
| 2026-05-01 12:17 | 30.23103 | -12.60895 | 32287 ft | 430 kts | 219° |
| 2026-05-01 12:17 | 30.20736 | -12.62916 | 31798 ft | 427 kts | 219° |
| 2026-05-01 12:17 | 30.18363 | -12.64942 | 31317 ft | 423 kts | 219° |
| 2026-05-01 12:17 | 30.15967 | -12.66987 | 30842 ft | 420 kts | 219° |
| 2026-05-01 12:18 | 30.13657 | -12.68957 | 30386 ft | 417 kts | 219° |
| 2026-05-01 12:18 | 30.11325 | -12.70945 | 29837 ft | 415 kts | 219° |
| 2026-05-01 12:18 | 30.09132 | -12.73125 | 29237 ft | 410 kts | 229° |
| 2026-05-01 12:18 | 30.07252 | -12.75526 | 28727 ft | 405 kts | 231° |
| 2026-05-01 12:19 | 30.05420 | -12.77977 | 28231 ft | 401 kts | 231° |
| 2026-05-01 12:19 | 30.03611 | -12.80401 | 27769 ft | 397 kts | 231° |
| 2026-05-01 12:19 | 30.02390 | -12.82019 | 27449 ft | 395 kts | 231° |
| 2026-05-01 12:19 | 30.00985 | -12.83862 | 27093 ft | 392 kts | 230° |
| 2026-05-01 12:20 | 29.99191 | -12.86191 | 26642 ft | 388 kts | 230° |
| 2026-05-01 12:20 | 29.97403 | -12.88497 | 26193 ft | 384 kts | 230° |
| 2026-05-01 12:20 | 29.95626 | -12.90784 | 25748 ft | 381 kts | 230° |
| 2026-05-01 12:20 | 29.93861 | -12.93052 | 25313 ft | 378 kts | 230° |
| 2026-05-01 12:21 | 29.92115 | -12.95295 | 24878 ft | 375 kts | 229° |
| 2026-05-01 12:21 | 29.90290 | -12.97417 | 24428 ft | 374 kts | 220° |
| 2026-05-01 12:21 | 29.88058 | -12.98939 | 24060 ft | 374 kts | 205° |
| 2026-05-01 12:21 | 29.86885 | -12.99457 | 23886 ft | 373 kts | 203° |
| 2026-05-01 12:22 | 29.84436 | -13.00408 | 23408 ft | 371 kts | 201° |
| 2026-05-01 12:22 | 29.81982 | -13.01307 | 22929 ft | 368 kts | 201° |
| 2026-05-01 12:22 | 29.79554 | -13.02201 | 22475 ft | 365 kts | 201° |
| 2026-05-01 12:22 | 29.77152 | -13.03103 | 22057 ft | 361 kts | 201° |
| 2026-05-01 12:23 | 29.74775 | -13.04011 | 21619 ft | 358 kts | 201° |
| 2026-05-01 12:23 | 29.72422 | -13.04918 | 21200 ft | 355 kts | 201° |
| 2026-05-01 12:23 | 29.70086 | -13.05822 | 20780 ft | 353 kts | 201° |
| 2026-05-01 12:23 | 29.67772 | -13.06717 | 20361 ft | 350 kts | 201° |
| 2026-05-01 12:24 | 29.65468 | -13.07607 | 19949 ft | 348 kts | 201° |
| 2026-05-01 12:24 | 29.63190 | -13.08487 | 19549 ft | 346 kts | 201° |
| 2026-05-01 12:24 | 29.61679 | -13.09070 | 19277 ft | 344 kts | 201° |
| 2026-05-01 12:24 | 29.59974 | -13.09728 | 18973 ft | 343 kts | 201° |
| 2026-05-01 12:25 | 29.57716 | -13.10599 | 18573 ft | 341 kts | 201° |
| 2026-05-01 12:25 | 29.53235 | -13.12326 | 17658 ft | 339 kts | 201° |
| 2026-05-01 12:25 | 29.51006 | -13.13184 | 17264 ft | 336 kts | 201° |
| 2026-05-01 12:26 | 29.48817 | -13.14026 | 17205 ft | 326 kts | 201° |
| 2026-05-01 12:26 | 29.44655 | -13.15624 | 17170 ft | 305 kts | 201° |
| 2026-05-01 12:26 | 29.43412 | -13.16102 | 17161 ft | 296 kts | 201° |
| 2026-05-01 12:27 | 29.41466 | -13.16851 | 16705 ft | 299 kts | 201° |
| 2026-05-01 12:27 | 29.37395 | -13.18419 | 15254 ft | 322 kts | 201° |
| 2026-05-01 12:28 | 29.33073 | -13.19921 | 14539 ft | 322 kts | 197° |
| 2026-05-01 12:28 | 29.30899 | -13.20589 | 14248 ft | 326 kts | 197° |
| 2026-05-01 12:28 | 29.26458 | -13.21980 | 13591 ft | 333 kts | 197° |
| 2026-05-01 12:29 | 29.24229 | -13.22687 | 13261 ft | 331 kts | 197° |
| 2026-05-01 12:29 | 29.22021 | -13.23405 | 13211 ft | 328 kts | 198° |
| 2026-05-01 12:29 | 29.18919 | -13.24450 | 13170 ft | 312 kts | 198° |
| 2026-05-01 12:30 | 29.14945 | -13.25796 | 13137 ft | 285 kts | 198° |
| 2026-05-01 12:30 | 29.13076 | -13.26428 | 13044 ft | 276 kts | 198° |
| 2026-05-01 12:30 | 29.11206 | -13.27061 | 12352 ft | 289 kts | 198° |
| 2026-05-01 12:31 | 29.09233 | -13.27729 | 11720 ft | 299 kts | 198° |
| 2026-05-01 12:31 | 29.07235 | -13.28402 | 11344 ft | 300 kts | 198° |
| 2026-05-01 12:31 | 29.05298 | -13.29054 | 11047 ft | 297 kts | 197° |
| 2026-05-01 12:31 | 29.03966 | -13.29502 | 10740 ft | 299 kts | 197° |
| 2026-05-01 12:32 | 29.01964 | -13.30175 | 10498 ft | 295 kts | 197° |
| 2026-05-01 12:32 | 28.98206 | -13.31435 | 10076 ft | 273 kts | 197° |
| 2026-05-01 12:32 | 28.96398 | -13.32095 | 9567 ft | 273 kts | 199° |
| 2026-05-01 12:33 | 28.94609 | -13.32781 | 9139 ft | 270 kts | 199° |
| 2026-05-01 12:33 | 28.92849 | -13.33456 | 8700 ft | 268 kts | 199° |
| 2026-05-01 12:33 | 28.91034 | -13.34060 | 8363 ft | 273 kts | 187° |
| 2026-05-01 12:33 | 28.89150 | -13.33869 | 8248 ft | 274 kts | 163° |
| 2026-05-01 12:34 | 28.87441 | -13.33000 | 8202 ft | 264 kts | 155° |
| 2026-05-01 12:34 | 28.85840 | -13.32071 | 8174 ft | 252 kts | 154° |
| 2026-05-01 12:34 | 28.84892 | -13.31522 | 8165 ft | 247 kts | 154° |
| 2026-05-01 12:34 | 28.83877 | -13.30941 | 8167 ft | 243 kts | 155° |
| 2026-05-01 12:35 | 28.82362 | -13.30081 | 8182 ft | 245 kts | 155° |
| 2026-05-01 12:35 | 28.81344 | -13.29507 | 8191 ft | 249 kts | 155° |
| 2026-05-01 12:35 | 28.79776 | -13.28626 | 8199 ft | 253 kts | 155° |
| 2026-05-01 12:35 | 28.78162 | -13.27848 | 8169 ft | 250 kts | 171° |
| 2026-05-01 12:36 | 28.76449 | -13.27800 | 8182 ft | 246 kts | 184° |
| 2026-05-01 12:36 | 28.74744 | -13.27904 | 8169 ft | 245 kts | 184° |
| 2026-05-01 12:36 | 28.73045 | -13.28002 | 8099 ft | 244 kts | 184° |
| 2026-05-01 12:36 | 28.71962 | -13.28062 | 7973 ft | 243 kts | 184° |
| 2026-05-01 12:37 | 28.70264 | -13.28154 | 7666 ft | 245 kts | 184° |
| 2026-05-01 12:37 | 28.68559 | -13.28284 | 7359 ft | 246 kts | 193° |
| 2026-05-01 12:37 | 28.67045 | -13.29115 | 7064 ft | 243 kts | 224° |
| 2026-05-01 12:37 | 28.66139 | -13.30688 | 6813 ft | 239 kts | 254° |
| 2026-05-01 12:38 | 28.65999 | -13.32552 | 6562 ft | 237 kts | 279° |
| 2026-05-01 12:38 | 28.66398 | -13.34371 | 6308 ft | 236 kts | 287° |
| 2026-05-01 12:38 | 28.66905 | -13.36154 | 6015 ft | 237 kts | 288° |
| 2026-05-01 12:38 | 28.67413 | -13.37939 | 5771 ft | 236 kts | 288° |
| 2026-05-01 12:39 | 28.67910 | -13.39723 | 5486 ft | 237 kts | 288° |
| 2026-05-01 12:39 | 28.68402 | -13.41515 | 5231 ft | 237 kts | 288° |
| 2026-05-01 12:39 | 28.68724 | -13.42695 | 5085 ft | 236 kts | 288° |
| 2026-05-01 12:39 | 28.69115 | -13.44129 | 5034 ft | 237 kts | 288° |
| 2026-05-01 12:40 | 28.69606 | -13.45934 | 5002 ft | 239 kts | 288° |
| 2026-05-01 12:40 | 28.70094 | -13.47734 | 4990 ft | 238 kts | 288° |
| 2026-05-01 12:40 | 28.70582 | -13.49537 | 4993 ft | 238 kts | 288° |
| 2026-05-01 12:40 | 28.71068 | -13.51333 | 4964 ft | 237 kts | 288° |
| 2026-05-01 12:41 | 28.71550 | -13.53114 | 4902 ft | 232 kts | 288° |
| 2026-05-01 12:41 | 28.72022 | -13.54861 | 4898 ft | 230 kts | 288° |
| 2026-05-01 12:41 | 28.72499 | -13.56628 | 4747 ft | 239 kts | 288° |
| 2026-05-01 12:41 | 28.72734 | -13.57498 | 4646 ft | 242 kts | 288° |
| 2026-05-01 12:42 | 28.73229 | -13.59344 | 4423 ft | 244 kts | 288° |
| 2026-05-01 12:42 | 28.73720 | -13.61184 | 4188 ft | 242 kts | 288° |
| 2026-05-01 12:42 | 28.74207 | -13.63012 | 3968 ft | 240 kts | 288° |
| 2026-05-01 12:42 | 28.74690 | -13.64821 | 3750 ft | 238 kts | 288° |
| 2026-05-01 12:43 | 28.75225 | -13.66590 | 3519 ft | 235 kts | 301° |
| 2026-05-01 12:43 | 28.76303 | -13.67917 | 3315 ft | 224 kts | 324° |
| 2026-05-01 12:43 | 28.77578 | -13.68883 | 3101 ft | 217 kts | 339° |
| 2026-05-01 12:43 | 28.79019 | -13.68996 | 2906 ft | 208 kts | 15° |
| 2026-05-01 12:44 | 28.80366 | -13.68494 | 2764 ft | 200 kts | 20° |
| 2026-05-01 12:44 | 28.81637 | -13.67958 | 2654 ft | 190 kts | 22° |
| 2026-05-01 12:44 | 28.83411 | -13.67014 | 2315 ft | 190 kts | 26° |
| 2026-05-01 12:45 | 28.85693 | -13.65682 | 1805 ft | 177 kts | 27° |
| 2026-05-01 12:45 | 28.86755 | -13.65062 | 1554 ft | 165 kts | 27° |
| 2026-05-01 12:45 | 28.87723 | -13.64499 | 1361 ft | 151 kts | 26° |
| 2026-05-01 12:46 | 28.88648 | -13.63960 | 1156 ft | 149 kts | 27° |
| 2026-05-01 12:46 | 28.89582 | -13.63414 | 963 ft | 152 kts | 28° |
| 2026-05-01 12:46 | 28.90531 | -13.62861 | 758 ft | 154 kts | 30° |
| 2026-05-01 12:46 | 28.91117 | -13.62524 | 662 ft | 153 kts | 28° |
| 2026-05-01 12:47 | 28.92064 | -13.62003 | 458 ft | 152 kts | 31° |
| 2026-05-01 12:47 | 28.93002 | -13.61412 | 217 ft | 155 kts | 30° |
| 2026-05-01 12:47 | 28.93952 | -13.60875 | 34 ft | 148 kts | 30° |
| 2026-05-01 12:47 | 28.94750 | -13.60409 | 41 ft | 97 kts | 25° |
| 2026-05-01 12:48 | 28.95172 | -13.60163 | 49 ft | 28 kts | 27° |
| 2026-05-01 12:48 | 28.95337 | -13.60066 | 51 ft | 26 kts | 27° |
| 2026-05-01 12:48 | 28.95454 | -13.60003 | 52 ft | 14 kts | 13° |
| 2026-05-01 12:48 | 28.95525 | -13.60053 | 55 ft | 13 kts | 298° |
| 2026-05-01 12:49 | 28.95539 | -13.60148 | 52 ft | 13 kts | 234° |
| 2026-05-01 12:49 | 28.95463 | -13.60194 | 55 ft | 12 kts | 193° |
| 2026-05-01 12:49 | 28.95400 | -13.60224 | 49 ft | 18 kts | 215° |
| 2026-05-01 12:49 | 28.95371 | -13.60313 | 47 ft | 18 kts | 295° |
| 2026-05-01 12:50 | 28.95346 | -13.60426 | 49 ft | 14 kts | 212° |
| 2026-05-01 12:50 | 28.95336 | -13.60500 | 49 ft | 10 kts | 282° |
| 2026-05-01 12:50 | 28.95342 | -13.60511 | 47 ft | 0 kts | 304° |